AAL474 KDFW-KPHX
Flight info
| Callsign | AAL474 |
|---|---|
| Flight time | 0h 50m |
| Altitude | 32000 |
| Route | WSTEX2 CIKAN EWM DRRVR PINNG1 |
| Aircraft | B738/M-SDE2E3FGHIRWXY/LB1 |
Departure
| Time | 2026-05-07 04:52 |
|---|---|
| Airport | Dallas Fort Worth International Airport (KDFW) |
Arrival
| Time | 2026-05-07 05:42 |
|---|---|
| Airport | Phoenix Sky Harbor International Airport (KPHX) |
| Time | Latitude | Longitude | Altitude | Speed | Heading |
|---|---|---|---|---|---|
| 2026-05-07 04:22 | 32.89997 | -97.04422 | 595 ft | 0 kts | 181° |
| 2026-05-07 04:35 | 32.90017 | -97.04422 | 595 ft | 4 kts | 176° |
| 2026-05-07 04:35 | 32.90044 | -97.04425 | 595 ft | 4 kts | 172° |
| 2026-05-07 04:35 | 32.90070 | -97.04428 | 596 ft | 4 kts | 191° |
| 2026-05-07 04:35 | 32.90082 | -97.04423 | 596 ft | 1 kts | 270° |
| 2026-05-07 04:36 | 32.90082 | -97.04417 | 596 ft | 1 kts | 270° |
| 2026-05-07 04:39 | 32.90082 | -97.04423 | 596 ft | 2 kts | 270° |
| 2026-05-07 04:39 | 32.90082 | -97.04444 | 596 ft | 4 kts | 270° |
| 2026-05-07 04:39 | 32.90083 | -97.04480 | 596 ft | 5 kts | 270° |
| 2026-05-07 04:39 | 32.90082 | -97.04525 | 596 ft | 6 kts | 270° |
| 2026-05-07 04:40 | 32.90083 | -97.04572 | 597 ft | 6 kts | 270° |
| 2026-05-07 04:40 | 32.90083 | -97.04607 | 598 ft | 7 kts | 270° |
| 2026-05-07 04:40 | 32.90083 | -97.04667 | 599 ft | 8 kts | 270° |
| 2026-05-07 04:40 | 32.90082 | -97.04729 | 599 ft | 0 kts | 268° |
| 2026-05-07 04:41 | 32.90081 | -97.04736 | 599 ft | 2 kts | 268° |
| 2026-05-07 04:41 | 32.90077 | -97.04760 | 600 ft | 4 kts | 235° |
| 2026-05-07 04:41 | 32.90045 | -97.04766 | 600 ft | 6 kts | 182° |
| 2026-05-07 04:41 | 32.89988 | -97.04766 | 599 ft | 10 kts | 180° |
| 2026-05-07 04:42 | 32.89898 | -97.04766 | 597 ft | 15 kts | 180° |
| 2026-05-07 04:42 | 32.89797 | -97.04768 | 596 ft | 12 kts | 180° |
| 2026-05-07 04:42 | 32.89716 | -97.04768 | 597 ft | 12 kts | 180° |
| 2026-05-07 04:42 | 32.89636 | -97.04768 | 597 ft | 11 kts | 180° |
| 2026-05-07 04:43 | 32.89554 | -97.04769 | 596 ft | 13 kts | 180° |
| 2026-05-07 04:43 | 32.89458 | -97.04769 | 594 ft | 15 kts | 179° |
| 2026-05-07 04:43 | 32.89349 | -97.04769 | 593 ft | 16 kts | 180° |
| 2026-05-07 04:43 | 32.89239 | -97.04769 | 594 ft | 15 kts | 180° |
| 2026-05-07 04:44 | 32.89132 | -97.04770 | 592 ft | 16 kts | 180° |
| 2026-05-07 04:44 | 32.89012 | -97.04770 | 590 ft | 18 kts | 181° |
| 2026-05-07 04:44 | 32.88883 | -97.04771 | 590 ft | 18 kts | 180° |
| 2026-05-07 04:44 | 32.88758 | -97.04772 | 590 ft | 18 kts | 180° |
| 2026-05-07 04:45 | 32.88628 | -97.04772 | 587 ft | 20 kts | 180° |
| 2026-05-07 04:45 | 32.88529 | -97.04777 | 587 ft | 9 kts | 196° |
| 2026-05-07 04:45 | 32.88474 | -97.04806 | 587 ft | 9 kts | 199° |
| 2026-05-07 04:45 | 32.88415 | -97.04809 | 588 ft | 8 kts | 179° |
| 2026-05-07 04:46 | 32.88357 | -97.04809 | 588 ft | 9 kts | 180° |
| 2026-05-07 04:46 | 32.88292 | -97.04810 | 587 ft | 10 kts | 180° |
| 2026-05-07 04:46 | 32.88212 | -97.04810 | 586 ft | 12 kts | 180° |
| 2026-05-07 04:46 | 32.88122 | -97.04810 | 586 ft | 14 kts | 180° |
| 2026-05-07 04:47 | 32.88027 | -97.04810 | 586 ft | 13 kts | 180° |
| 2026-05-07 04:47 | 32.87943 | -97.04811 | 585 ft | 6 kts | 180° |
| 2026-05-07 04:47 | 32.87913 | -97.04833 | 585 ft | 6 kts | 253° |
| 2026-05-07 04:47 | 32.87911 | -97.04881 | 584 ft | 6 kts | 270° |
| 2026-05-07 04:48 | 32.87911 | -97.04929 | 584 ft | 6 kts | 270° |
| 2026-05-07 04:48 | 32.87911 | -97.04969 | 584 ft | 0 kts | 270° |
| 2026-05-07 04:50 | 32.87911 | -97.04971 | 584 ft | 1 kts | 270° |
| 2026-05-07 04:50 | 32.87911 | -97.05001 | 585 ft | 6 kts | 270° |
| 2026-05-07 04:50 | 32.87912 | -97.05060 | 585 ft | 8 kts | 277° |
| 2026-05-07 04:51 | 32.87952 | -97.05094 | 587 ft | 7 kts | 346° |
| 2026-05-07 04:51 | 32.88029 | -97.05094 | 589 ft | 32 kts | 0° |
| 2026-05-07 04:51 | 32.88540 | -97.05091 | 588 ft | 113 kts | 0° |
| 2026-05-07 04:51 | 32.89560 | -97.05078 | 617 ft | 178 kts | 2° |
| 2026-05-07 04:52 | 32.90867 | -97.05131 | 1422 ft | 186 kts | 359° |
| 2026-05-07 04:52 | 32.92189 | -97.05192 | 2431 ft | 192 kts | 0° |
| 2026-05-07 04:52 | 32.93620 | -97.05203 | 2785 ft | 218 kts | 1° |
| 2026-05-07 04:52 | 32.95163 | -97.05583 | 3122 ft | 239 kts | 341° |
| 2026-05-07 04:53 | 32.96808 | -97.06308 | 3462 ft | 262 kts | 340° |
| 2026-05-07 04:53 | 32.98557 | -97.07050 | 4144 ft | 271 kts | 338° |
| 2026-05-07 04:53 | 33.00114 | -97.08225 | 4946 ft | 268 kts | 307° |
| 2026-05-07 04:53 | 33.00926 | -97.10135 | 5809 ft | 254 kts | 277° |
| 2026-05-07 04:54 | 33.01050 | -97.12194 | 6745 ft | 247 kts | 265° |
| 2026-05-07 04:54 | 33.00933 | -97.14225 | 7614 ft | 244 kts | 263° |
| 2026-05-07 04:54 | 33.00789 | -97.16226 | 8489 ft | 241 kts | 263° |
| 2026-05-07 04:54 | 33.00601 | -97.18227 | 9197 ft | 247 kts | 262° |
| 2026-05-07 04:55 | 33.00381 | -97.20277 | 9974 ft | 249 kts | 262° |
| 2026-05-07 04:55 | 33.00162 | -97.22354 | 10503 ft | 262 kts | 261° |
| 2026-05-07 04:55 | 32.99596 | -97.24514 | 10640 ft | 287 kts | 244° |
| 2026-05-07 04:55 | 32.98426 | -97.26564 | 10819 ft | 311 kts | 236° |
| 2026-05-07 04:56 | 32.97067 | -97.28666 | 11028 ft | 329 kts | 235° |
| 2026-05-07 04:56 | 32.95636 | -97.30833 | 11497 ft | 336 kts | 235° |
| 2026-05-07 04:56 | 32.94183 | -97.33029 | 12153 ft | 337 kts | 235° |
| 2026-05-07 04:56 | 32.92734 | -97.35227 | 12829 ft | 338 kts | 235° |
| 2026-05-07 04:57 | 32.91279 | -97.37446 | 13461 ft | 341 kts | 235° |
| 2026-05-07 04:57 | 32.89818 | -97.39682 | 14051 ft | 343 kts | 235° |
| 2026-05-07 04:57 | 32.88352 | -97.41929 | 14636 ft | 344 kts | 236° |
| 2026-05-07 04:57 | 32.86886 | -97.44180 | 15241 ft | 345 kts | 236° |
| 2026-05-07 04:58 | 32.85413 | -97.46441 | 15834 ft | 346 kts | 236° |
| 2026-05-07 04:58 | 32.83937 | -97.48707 | 16412 ft | 347 kts | 236° |
| 2026-05-07 04:58 | 32.82458 | -97.50978 | 16963 ft | 348 kts | 236° |
| 2026-05-07 04:58 | 32.80971 | -97.53259 | 17506 ft | 350 kts | 236° |
| 2026-05-07 04:59 | 32.79477 | -97.55549 | 18023 ft | 352 kts | 236° |
| 2026-05-07 04:59 | 32.77969 | -97.57860 | 18501 ft | 354 kts | 236° |
| 2026-05-07 04:59 | 32.76458 | -97.60174 | 18964 ft | 355 kts | 236° |
| 2026-05-07 04:59 | 32.74941 | -97.62496 | 19392 ft | 357 kts | 236° |
| 2026-05-07 05:00 | 32.73433 | -97.64803 | 19825 ft | 358 kts | 236° |
| 2026-05-07 05:00 | 32.71899 | -97.67147 | 20263 ft | 360 kts | 236° |
| 2026-05-07 05:00 | 32.70360 | -97.69497 | 20690 ft | 361 kts | 236° |
| 2026-05-07 05:00 | 32.68885 | -97.71907 | 21065 ft | 360 kts | 243° |
| 2026-05-07 05:01 | 32.67877 | -97.74621 | 21518 ft | 360 kts | 253° |
| 2026-05-07 05:01 | 32.67389 | -97.77538 | 21935 ft | 362 kts | 261° |
| 2026-05-07 05:01 | 32.67138 | -97.80526 | 22346 ft | 365 kts | 263° |
| 2026-05-07 05:01 | 32.66917 | -97.83754 | 22771 ft | 367 kts | 263° |
| 2026-05-07 05:02 | 32.65529 | -98.03296 | 24993 ft | 373 kts | 262° |
| 2026-05-07 05:02 | 32.63973 | -98.21988 | 26806 ft | 377 kts | 262° |
| 2026-05-07 05:02 | 32.62886 | -98.35316 | 27813 ft | 382 kts | 262° |
| 2026-05-07 05:02 | 32.60869 | -98.60396 | 30091 ft | 378 kts | 261° |
| 2026-05-07 05:03 | 32.58815 | -98.84431 | 32472 ft | 365 kts | 260° |
| 2026-05-07 05:03 | 32.56732 | -99.08237 | 34509 ft | 359 kts | 260° |
| 2026-05-07 05:03 | 32.56388 | -99.12176 | 34852 ft | 357 kts | 260° |
| 2026-05-07 05:03 | 32.56129 | -99.15105 | 35067 ft | 356 kts | 260° |
| 2026-05-07 05:04 | 32.55870 | -99.18031 | 35184 ft | 358 kts | 260° |
| 2026-05-07 05:04 | 32.55608 | -99.20981 | 35256 ft | 361 kts | 260° |
| 2026-05-07 05:04 | 32.55344 | -99.23948 | 35363 ft | 363 kts | 260° |
| 2026-05-07 05:04 | 32.55080 | -99.26930 | 35533 ft | 362 kts | 260° |
| 2026-05-07 05:05 | 32.54817 | -99.29891 | 35749 ft | 361 kts | 260° |
| 2026-05-07 05:05 | 32.54557 | -99.32812 | 35956 ft | 360 kts | 260° |
| 2026-05-07 05:05 | 32.53512 | -99.49816 | 36142 ft | 356 kts | 261° |
| 2026-05-07 05:06 | 32.52519 | -99.66361 | 36107 ft | 358 kts | 261° |
| 2026-05-07 05:06 | 32.49515 | -100.13473 | 36077 ft | 358 kts | 261° |
| 2026-05-07 05:07 | 32.48048 | -100.35514 | 36144 ft | 357 kts | 261° |
| 2026-05-07 05:07 | 32.45010 | -100.80867 | 36090 ft | 352 kts | 260° |
| 2026-05-07 05:08 | 32.41734 | -101.26910 | 36036 ft | 349 kts | 260° |
| 2026-05-07 05:08 | 32.41044 | -101.36455 | 36039 ft | 354 kts | 259° |
| 2026-05-07 05:09 | 32.40044 | -101.49573 | 36090 ft | 367 kts | 259° |
| 2026-05-07 05:09 | 32.37700 | -101.80692 | 36029 ft | 373 kts | 259° |
| 2026-05-07 05:10 | 32.33869 | -102.29142 | 36023 ft | 367 kts | 258° |
| 2026-05-07 05:10 | 32.29935 | -102.76415 | 36026 ft | 355 kts | 258° |
| 2026-05-07 05:11 | 32.25949 | -103.22405 | 35918 ft | 349 kts | 258° |
| 2026-05-07 05:11 | 32.21790 | -103.68351 | 35960 ft | 356 kts | 258° |
| 2026-05-07 05:12 | 32.20286 | -103.84491 | 35933 ft | 362 kts | 258° |
| 2026-05-07 05:12 | 32.16074 | -104.28763 | 36002 ft | 364 kts | 258° |
| 2026-05-07 05:13 | 32.12991 | -104.60143 | 35954 ft | 365 kts | 258° |
| 2026-05-07 05:13 | 32.12393 | -104.66092 | 35932 ft | 366 kts | 258° |
| 2026-05-07 05:14 | 32.11728 | -104.72654 | 35946 ft | 366 kts | 258° |
| 2026-05-07 05:14 | 32.10630 | -104.83463 | 35943 ft | 366 kts | 258° |
| 2026-05-07 05:15 | 32.10025 | -104.89417 | 35955 ft | 365 kts | 258° |
| 2026-05-07 05:15 | 32.09366 | -104.95882 | 35937 ft | 364 kts | 258° |
| 2026-05-07 05:16 | 32.08507 | -105.04207 | 35939 ft | 365 kts | 258° |
| 2026-05-07 05:16 | 32.03932 | -105.47938 | 35970 ft | 367 kts | 258° |
| 2026-05-07 05:17 | 32.03056 | -105.56092 | 35948 ft | 367 kts | 257° |
| 2026-05-07 05:17 | 31.99854 | -105.85475 | 35955 ft | 370 kts | 257° |
| 2026-05-07 05:18 | 31.96831 | -106.12696 | 36023 ft | 372 kts | 257° |
| 2026-05-07 05:18 | 31.95313 | -106.28317 | 36077 ft | 378 kts | 264° |
| 2026-05-07 05:19 | 31.97263 | -106.51305 | 36038 ft | 381 kts | 268° |
| 2026-05-07 05:19 | 32.01309 | -107.00837 | 35983 ft | 379 kts | 268° |
| 2026-05-07 05:20 | 32.05193 | -107.50536 | 36005 ft | 382 kts | 268° |
| 2026-05-07 05:20 | 32.06532 | -107.68426 | 36084 ft | 381 kts | 268° |
| 2026-05-07 05:21 | 32.09571 | -108.09919 | 35975 ft | 386 kts | 267° |
| 2026-05-07 05:22 | 32.13089 | -108.60716 | 36069 ft | 391 kts | 267° |
| 2026-05-07 05:22 | 32.15065 | -108.90682 | 36052 ft | 393 kts | 267° |
| 2026-05-07 05:23 | 32.17544 | -109.29402 | 35965 ft | 399 kts | 271° |
| 2026-05-07 05:23 | 32.21192 | -109.46665 | 35955 ft | 407 kts | 277° |
| 2026-05-07 05:24 | 32.32088 | -109.98516 | 33758 ft | 399 kts | 277° |
| 2026-05-07 05:24 | 32.36367 | -110.19312 | 31182 ft | 374 kts | 278° |
| 2026-05-07 05:24 | 32.36987 | -110.22276 | 30938 ft | 369 kts | 278° |
| 2026-05-07 05:24 | 32.37603 | -110.25220 | 30746 ft | 365 kts | 278° |
| 2026-05-07 05:25 | 32.38209 | -110.28131 | 30348 ft | 362 kts | 278° |
| 2026-05-07 05:25 | 32.38805 | -110.31019 | 30012 ft | 362 kts | 278° |
| 2026-05-07 05:25 | 32.39405 | -110.33955 | 29656 ft | 371 kts | 278° |
| 2026-05-07 05:25 | 32.43050 | -110.52051 | 27147 ft | 368 kts | 280° |
| 2026-05-07 05:26 | 32.43998 | -110.56690 | 26689 ft | 360 kts | 281° |
| 2026-05-07 05:26 | 32.44598 | -110.59575 | 26509 ft | 360 kts | 281° |
| 2026-05-07 05:26 | 32.45189 | -110.62451 | 26100 ft | 359 kts | 281° |
| 2026-05-07 05:26 | 32.45771 | -110.65318 | 25738 ft | 357 kts | 281° |
| 2026-05-07 05:27 | 32.46341 | -110.68148 | 25369 ft | 358 kts | 281° |
| 2026-05-07 05:27 | 32.46997 | -110.70983 | 24978 ft | 359 kts | 290° |
| 2026-05-07 05:27 | 32.48267 | -110.73590 | 24587 ft | 372 kts | 302° |
| 2026-05-07 05:27 | 32.53381 | -110.82313 | 23062 ft | 394 kts | 304° |
| 2026-05-07 05:28 | 32.54935 | -110.85013 | 22469 ft | 396 kts | 304° |
| 2026-05-07 05:28 | 32.56472 | -110.87708 | 21990 ft | 393 kts | 304° |
| 2026-05-07 05:28 | 32.57995 | -110.90385 | 21589 ft | 389 kts | 304° |
| 2026-05-07 05:28 | 32.59503 | -110.93028 | 21198 ft | 384 kts | 304° |
| 2026-05-07 05:29 | 32.60493 | -110.94763 | 20951 ft | 382 kts | 304° |
| 2026-05-07 05:29 | 32.65645 | -111.03809 | 19626 ft | 370 kts | 305° |
| 2026-05-07 05:29 | 32.74364 | -111.19184 | 17336 ft | 354 kts | 306° |
| 2026-05-07 05:29 | 32.79679 | -111.28538 | 15914 ft | 344 kts | 306° |
| 2026-05-07 05:30 | 32.89930 | -111.46764 | 13244 ft | 326 kts | 306° |
| 2026-05-07 05:30 | 32.91401 | -111.48773 | 12872 ft | 319 kts | 326° |
| 2026-05-07 05:30 | 32.93308 | -111.50012 | 12578 ft | 310 kts | 341° |
| 2026-05-07 05:30 | 33.02301 | -111.54276 | 11159 ft | 300 kts | 341° |
| 2026-05-07 05:31 | 33.04258 | -111.55227 | 10880 ft | 298 kts | 341° |
| 2026-05-07 05:31 | 33.06166 | -111.56166 | 10606 ft | 295 kts | 341° |
| 2026-05-07 05:31 | 33.08054 | -111.57098 | 10334 ft | 293 kts | 341° |
| 2026-05-07 05:31 | 33.09930 | -111.58027 | 10055 ft | 291 kts | 340° |
| 2026-05-07 05:32 | 33.11793 | -111.58949 | 9764 ft | 289 kts | 340° |
| 2026-05-07 05:32 | 33.13646 | -111.59865 | 9460 ft | 288 kts | 340° |
| 2026-05-07 05:32 | 33.15490 | -111.60777 | 9173 ft | 286 kts | 340° |
| 2026-05-07 05:32 | 33.17314 | -111.61680 | 8875 ft | 280 kts | 340° |
| 2026-05-07 05:33 | 33.19066 | -111.62547 | 8574 ft | 272 kts | 340° |
| 2026-05-07 05:33 | 33.20812 | -111.63411 | 8260 ft | 266 kts | 339° |
| 2026-05-07 05:33 | 33.22485 | -111.64240 | 8081 ft | 255 kts | 339° |
| 2026-05-07 05:33 | 33.24080 | -111.65097 | 7808 ft | 248 kts | 336° |
| 2026-05-07 05:34 | 33.25611 | -111.65993 | 7554 ft | 241 kts | 335° |
| 2026-05-07 05:34 | 33.27078 | -111.66861 | 7346 ft | 231 kts | 335° |
| 2026-05-07 05:34 | 33.28498 | -111.67700 | 7109 ft | 225 kts | 335° |
| 2026-05-07 05:34 | 33.29882 | -111.68514 | 6867 ft | 218 kts | 335° |
| 2026-05-07 05:35 | 33.31228 | -111.69304 | 6625 ft | 212 kts | 335° |
| 2026-05-07 05:35 | 33.32522 | -111.70062 | 6392 ft | 208 kts | 334° |
| 2026-05-07 05:35 | 33.33811 | -111.70816 | 6175 ft | 205 kts | 334° |
| 2026-05-07 05:35 | 33.35091 | -111.71565 | 5954 ft | 204 kts | 334° |
| 2026-05-07 05:36 | 33.36365 | -111.72310 | 5742 ft | 203 kts | 334° |
| 2026-05-07 05:36 | 33.37628 | -111.73048 | 5510 ft | 201 kts | 334° |
| 2026-05-07 05:36 | 33.38879 | -111.73780 | 5297 ft | 198 kts | 334° |
| 2026-05-07 05:36 | 33.40087 | -111.74522 | 5085 ft | 192 kts | 325° |
| 2026-05-07 05:37 | 33.40921 | -111.75711 | 4898 ft | 185 kts | 303° |
| 2026-05-07 05:37 | 33.41630 | -111.76995 | 4711 ft | 185 kts | 305° |
| 2026-05-07 05:37 | 33.42356 | -111.78282 | 4519 ft | 188 kts | 305° |
| 2026-05-07 05:37 | 33.43090 | -111.79587 | 4308 ft | 189 kts | 304° |
| 2026-05-07 05:38 | 33.43747 | -111.80930 | 4155 ft | 189 kts | 288° |
| 2026-05-07 05:38 | 33.43927 | -111.82491 | 3950 ft | 191 kts | 277° |
| 2026-05-07 05:38 | 33.44041 | -111.84064 | 3692 ft | 192 kts | 274° |
| 2026-05-07 05:38 | 33.44074 | -111.85654 | 3429 ft | 189 kts | 272° |
| 2026-05-07 05:39 | 33.44077 | -111.87197 | 3170 ft | 180 kts | 271° |
| 2026-05-07 05:39 | 33.44075 | -111.88652 | 2923 ft | 170 kts | 271° |
| 2026-05-07 05:39 | 33.44074 | -111.90015 | 2745 ft | 156 kts | 271° |
| 2026-05-07 05:39 | 33.44074 | -111.91311 | 2516 ft | 155 kts | 271° |
| 2026-05-07 05:40 | 33.44074 | -111.92593 | 2310 ft | 153 kts | 271° |
| 2026-05-07 05:40 | 33.44075 | -111.93868 | 2119 ft | 154 kts | 270° |
| 2026-05-07 05:40 | 33.44075 | -111.95154 | 1901 ft | 154 kts | 271° |
| 2026-05-07 05:40 | 33.44075 | -111.96429 | 1705 ft | 152 kts | 270° |
| 2026-05-07 05:41 | 33.44075 | -111.97699 | 1469 ft | 153 kts | 271° |
| 2026-05-07 05:41 | 33.44076 | -111.98972 | 1226 ft | 153 kts | 271° |
| 2026-05-07 05:41 | 33.44079 | -112.00189 | 1116 ft | 137 kts | 272° |
| 2026-05-07 05:41 | 33.44085 | -112.01167 | 1126 ft | 96 kts | 270° |
| 2026-05-07 05:42 | 33.44082 | -112.01616 | 1126 ft | 14 kts | 261° |
| 2026-05-07 05:42 | 33.44024 | -112.01696 | 1123 ft | 14 kts | 187° |
| 2026-05-07 05:42 | 33.43975 | -112.01620 | 1121 ft | 13 kts | 92° |
| 2026-05-07 05:42 | 33.43975 | -112.01510 | 1120 ft | 14 kts | 90° |
| 2026-05-07 05:43 | 33.43974 | -112.01392 | 1118 ft | 15 kts | 90° |
| 2026-05-07 05:43 | 33.43974 | -112.01273 | 1122 ft | 14 kts | 90° |
| 2026-05-07 05:43 | 33.43974 | -112.01256 | 1118 ft | 14 kts | 90° |